Terminal Aerodrome Forecast
Issued by NWS Goodland, KS

Home | Current Version | Previous Version | Text Only | Print | Product List | Glossary On
Versions: 1 2 3 4 5 6 7 8 9 10 11 12 13 14 15 16 17 18 19 20 21 22 23 24 25 26
000
FTUS43 KGLD 182046 AAD
TAFGLD
TAF AMD
KGLD 182046Z 1821/1918 15011KT P6SM VCTS BKN050CB
      TEMPO 1821/1822 TSRAGS BKN035CB
     FM190000 14009KT P6SM VCTS BKN035CB
     FM190600 33012G20KT 5SM -RA BR BKN020
     FM191400 35025G40KT P6SM BKN035=

USA.gov is the U.S. government's official web portal to all federal, state and local government web resources and services.